• Join FlightAware (Why Join?)
  • Login
  • US Flag 
02:55PM EST


 

Airport Tracker/Info


-or-


 

Live Flight TrackerFlight Track Log ✈ N730DF ✈ 24-Apr-2014 ✈ KPIE - MYNN / NAS

Flight Track Log - Related Links

Times and Time Zones

All times are in EDT time to prevent confusion due to time zone crossing. See the N730DF flight status page for this flight to view local times or setup timezone preferences in your user account.

Time Position Orientation Groundspeed Altitude Reporting Facility
EDT Latitude Longitude Course Direction KTS MPH feet Rate Location/Type
10:14AM 27.9333 -82.7000 319° Northwest 169 194 700  Level Tampa TRACON
10:15AM 27.9500 -82.7167 319° Northwest 198 228 1,400 1,440 Climbing Tampa TRACON
10:16AM 27.9500 -82.8000 270° West 263 303 2,900 1,140 Climbing Tampa TRACON
10:17AM 27.9167 -82.8667 241° Southwest 267 307 3,700 1,740 Climbing Tampa TRACON
10:18AM 27.8750 -82.9067 220° Southwest 287 330 6,200 2,520 Climbing Miami Center
10:19AM 27.8033 -82.8772 160° South 234 269 8,500 2,400 Climbing Miami Center
10:20AM 27.7319 -82.8336 152° Southeast 254 292 11,000 2,460 Climbing Miami Center
10:21AM 27.6547 -82.7872 152° Southeast 286 329 13,500 2,460 Climbing Miami Center
10:22AM 27.5775 -82.7364 150° Southeast 306 352 16,000 2,220 Climbing Miami Center
10:23AM 27.5308 -82.6544 123° Southeast 311 358 18,000 1,860 Climbing Miami Center
10:24AM 27.4850 -82.5469 116° Southeast 322 371 19,800 1,500 Climbing Miami Center
10:25AM 27.4367 -82.4464 118° Southeast 357 411 21,000 1,200 Climbing Miami Center
10:26AM 27.3906 -82.3436 117° Southeast 372 428 22,300 1,200 Climbing Miami Center
10:27AM 27.3419 -82.2456 119° Southeast 379 436 23,500 1,200 Climbing Miami Center
10:28AM 27.2897 -82.1378 119° Southeast 389 448 24,700 1,320 Climbing Miami Center
10:29AM 27.2317 -82.0139 118° Southeast 394 453 26,200 1,320 Climbing Miami Center
10:30AM 27.1792 -81.9042 118° Southeast 400 460 27,400 960 Climbing Miami Center
10:31AM 27.1225 -81.7919 120° Southeast 405 466 28,200 600 Climbing Miami Center
10:32AM 27.0694 -81.6872 120° Southeast 411 473 28,700 540 Climbing Miami Center
10:33AM 27.0053 -81.5517 118° Southeast 437 503 29,300 540 Climbing Miami Center
10:34AM 26.9444 -81.4283 119° Southeast 452 520 29,800 600 Climbing Miami Center
10:35AM 26.8836 -81.3047 119° Southeast 452 520 30,500 720 Climbing Miami Center
10:36AM 26.8283 -81.1933 119° Southeast 452 520 31,300 840 Climbing Miami Center
10:37AM 26.7694 -81.0703 118° Southeast 447 514 32,200 780 Climbing Miami Center
10:38AM 26.7003 -80.9353 120° Southeast 447 514 32,900 300 Climbing Miami Center
10:39AM 26.6389 -80.8100 119° Southeast 452 520 32,900  Level Miami Center
10:40AM 26.5756 -80.6822 119° Southeast 459 528 33,000  Climbing Miami Center
10:41AM 26.5158 -80.5622 119° Southeast 473 544 33,000  Level Miami Center
10:42AM 26.4486 -80.4161 117° Southeast 478 550 33,000  Level Miami Center
10:43AM 26.3786 -80.2819 120° Southeast 483 556 33,000  Level Miami Center
10:44AM 26.3108 -80.1456 119° Southeast 488 562 33,000  Level Miami Center
10:45AM 26.2447 -80.0117 119° Southeast 493 567 33,000 -60 Level Miami Center
10:46AM 26.1767 -79.8781 120° Southeast 493 567 32,900 -60 Descending Miami Center
10:47AM 26.1061 -79.7419 120° Southeast 493 567 32,900  Level Miami Center
10:48AM 26.0378 -79.6086 120° Southeast 488 562 32,900 -960 Level Miami Center
10:49AM 25.9692 -79.4728 119° Southeast 494 568 31,000 -1,980 Descending Miami Center
10:50AM 25.9025 -79.3397 119° Southeast 494 568 29,000 -2,100 Descending Miami Center
10:51AM 25.8336 -79.2092 120° Southeast 494 568 26,900 -2,100 Descending Miami Center
10:52AM 25.7667 -79.0786 120° Southeast 489 563 24,800 -1,920 Descending Miami Center
10:53AM 25.7181 -78.9761 118° Southeast 489 563 23,100 -1,980 Descending Miami Center
10:54AM 25.6469 -78.8414 120° Southeast 476 548 20,900 -2,040 Descending Miami Center
10:55AM 25.5775 -78.7225 123° Southeast 471 542 19,100 -1,680 Descending Miami Center
10:56AM 25.5142 -78.5972 119° Southeast 466 536 17,600 -1,500 Descending Miami Center
10:57AM 25.4508 -78.4744 120° Southeast 466 536 16,100 -1,500 Descending Miami Center
10:58AM 25.3872 -78.3586 121° Southeast 455 524 14,600 -1,500 Descending Miami Center
10:59AM 25.3319 -78.2453 118° Southeast 441 507 13,200 -780 Descending Miami Center
11:00AM 25.2703 -78.1342 122° Southeast 412 474 13,100 -60 Descending Miami Center
11:01AM 25.2167 -78.0303 120° Southeast 391 450 13,100  Level Miami Center